Lancaster, California
Current Conditions -  °F | °C
As of 7:56 PM on Sunday 25 Jan 2015 (Local Time) from KWJF Reporting Station
Clear Clear  
Wind Chill: 50°   Ceiling: Unl
Heat Index: 50°   Visibility: 10mi
Dew Point: 35°   Wind: 9mph
Humidity: 57%   Direction: 50°NE
Pressure: 30.12"   Gusts: NA
Location:  34.7°N, 118.14°W
Report Text: KWJF 260356Z AUTO 05008KT 10SM CLR 10/02 A3012 RMK AO2 SLP209 T01000017 TSNO
Loading
Personal Weather Stations






























Interactive Weather Map New forecast layout! Learn more

10-Day Weather Forecast

Advertisements
Track Severe Weather on mobile